Terminal Aerodrome Forecast
Issued by NWS La Crosse, WI

Current Version | Previous Version | Text Only | Print | Product List | Glossary On
Versions: 1 2 3 4 5 6 7 8 9 10 11 12 13 14 15
000
FTUS43 KARX 210340 AAA
TAFLSE
TAF AMD
KLSE 210340Z 2104/2124 19013KT P6SM BKN015 OVC120
     FM210500 25011KT P6SM SCT015 OVC150
     FM210900 29012KT P6SM SKC
     FM211200 28005KT 3SM BR SKC
     FM211600 20007KT P6SM FEW200=

USA.gov is the U.S. government's official web portal to all federal, state and local government web resources and services.